EDDC/DRS METAR and TAF weather

Enter ICAO airport designator
Station Type Date Time Source
EDDC METAR 2018/07/20 14:20 UTC NOAA

EDDC 201420Z 32007KT 240V050 CAVOK 27/07 Q1013 NOSIG


Station Type Date Time Source
EDDC Decoded METAR 2018/07/20 14:20 UTC NOAA

Dresden-Klotzsche, Germany (EDDC) 51-08N 013-45E 232M
Jul 20, 2018 - 10:20 AM EDT / 2018.07.20 1420 UTC
Wind: from the NW (320 degrees) at 8 MPH (7 KT) (direction variable):0
Visibility: greater than 7 mile(s):0
Temperature: 80 F (27 C)
Dew Point: 44 F (7 C)
Relative Humidity: 28%
Pressure (altimeter): 29.91 in. Hg (1013 hPa)
ob: EDDC 201420Z 32007KT 240V050 CAVOK 27/07 Q1013 NOSIG
cycle: 14

Station Type Date Time Source
EDDC TAF 2018/07/20 12:30 UTC NOAA

TAF EDDC 201100Z 2012/2112 36005KT CAVOK
BECMG 2016/2018 06007KT
BECMG 2019/2021 12006KT


Example: see airport list